Time;durP1;ratioP1;P1;durP2;ratioP2;P2;SDS_P1;SDS_P2;PMS_P1;PMS_P2;Temp;Humidity;BMP_temperature;BMP_pressure;BME280_temperature;BME280_humidity;BME280_pressure;Samples;Min_cycle;Max_cycle;Signal;HPM_P1;HPM_P2
2022/05/19 00:00:35;;;;;;;4.33;2.90;;;;;;;8.79;88.50;95875.19;5052174;28;20179;-80
2022/05/19 00:03:01;;;;;;;3.73;2.60;;;;;;;8.91;88.55;95889.53;5049918;28;20179;-80
2022/05/19 00:05:27;;;;;;;3.73;2.80;;;;;;;9.04;88.52;95895.84;5054076;28;20163;-80
2022/05/19 00:07:52;;;;;;;9.10;4.30;;;;;;;8.96;88.15;95876.69;5054187;28;20186;-80
2022/05/19 00:10:19;;;;;;;7.37;2.80;;;;;;;9.10;87.57;95902.19;5035956;28;20206;-80
2022/05/19 00:12:45;;;;;;;4.70;2.97;;;;;;;9.02;88.34;95889.94;5047729;28;20164;-80
2022/05/19 00:15:12;;;;;;;10.20;3.10;;;;;;;9.07;87.59;95908.63;5010315;28;20235;-80
2022/05/19 00:17:39;;;;;;;4.70;2.93;;;;;;;8.83;87.27;95865.94;5006368;28;20235;-80
2022/05/19 00:20:05;;;;;;;3.77;2.97;;;;;;;8.85;87.16;95869.22;5003642;28;20227;-80
2022/05/19 00:22:31;;;;;;;4.00;2.63;;;;;;;8.95;86.90;95890.81;5006095;28;20227;-80
2022/05/19 00:24:56;;;;;;;5.03;3.00;;;;;;;8.99;87.70;95903.41;5003532;28;20601;-80
2022/05/19 00:27:22;;;;;;;74.50;35.80;;;;;;;8.97;87.71;95909.84;5005716;28;20199;-80
2022/05/19 00:29:47;;;;;;;20.40;11.50;;;;;;;8.77;88.84;95880.59;5008793;28;20216;-80
2022/05/19 00:32:13;;;;;;;61.87;33.77;;;;;;;8.96;88.71;95914.28;5005506;28;20178;-80
2022/05/19 00:34:38;;;;;;;11.70;4.63;;;;;;;8.92;88.82;95889.34;5004370;28;20215;-80
2022/05/19 00:37:04;;;;;;;3.80;2.93;;;;;;;8.87;87.47;95894.31;5006344;28;20567;-80
2022/05/19 00:39:33;;;;;;;4.43;3.30;;;;;;;9.02;88.17;95915.38;5002670;28;20656;-80
2022/05/19 00:44:43;;;;;;;4.53;3.40;;;;;;;8.93;87.11;95913.81;5004365;28;20745;-80
2022/05/19 00:47:15;;;;;;;4.77;3.20;;;;;;;8.89;86.82;95904.66;5001357;28;20184;-80
2022/05/19 00:49:43;;;;;;;4.70;3.17;;;;;;;9.04;86.54;95929.16;5002822;28;20188;-80
2022/05/19 00:52:21;;;;;;;5.23;3.40;;;;;;;8.81;86.10;95892.41;4998666;28;20200;-79
2022/05/19 00:54:58;;;;;;;7.37;3.50;;;;;;;8.96;86.59;95921.34;5004210;28;20212;-80
2022/05/19 00:57:28;;;;;;;7.63;4.07;;;;;;;8.86;86.69;95913.69;5004397;28;20185;-80
2022/05/19 01:00:22;;;;;;;4.87;3.10;;;;;;;8.85;86.51;95933.06;5001005;28;20172;-80
2022/05/19 01:02:57;;;;;;;6.23;3.27;;;;;;;8.76;86.71;95922.78;4999912;28;20188;-80
2022/05/19 01:05:25;;;;;;;5.07;3.40;;;;;;;8.76;86.58;95936.72;5000392;28;20176;-81
2022/05/19 01:08:03;;;;;;;5.70;3.83;;;;;;;8.60;86.34;95913.19;5001943;28;20698;-81
2022/05/19 01:10:29;;;;;;;9.50;3.60;;;;;;;8.58;86.63;95918.59;5003844;28;20185;-81
2022/05/19 01:12:55;;;;;;;7.33;3.67;;;;;;;8.41;87.02;95896.06;5006102;28;20545;-81
2022/05/19 01:15:22;;;;;;;12.40;4.07;;;;;;;8.41;87.18;95905.72;5052646;28;20554;-81
2022/05/19 01:17:49;;;;;;;6.83;4.73;;;;;;;8.34;87.19;95902.97;5052588;28;20222;-81
2022/05/19 01:20:19;;;;;;;8.97;3.60;;;;;;;8.59;86.76;95948.28;5052906;28;20246;-81
2022/05/19 01:22:59;;;;;;;4.57;3.43;;;;;;;8.51;87.29;95943.91;5052565;28;20202;-82
2022/05/19 01:25:37;;;;;;;4.03;2.93;;;;;;;8.50;87.01;95947.50;5052379;28;20229;-82
2022/05/19 01:28:03;;;;;;;6.90;3.73;;;;;;;8.17;87.16;95886.47;5051174;28;20190;-82
2022/05/19 01:30:28;;;;;;;11.10;3.80;;;;;;;8.53;87.44;95944.56;5052577;28;21107;-82
2022/05/19 01:32:54;;;;;;;7.30;3.47;;;;;;;8.36;87.58;95922.00;5034537;28;20205;-82
2022/05/19 01:35:20;;;;;;;5.57;3.30;;;;;;;8.40;87.72;95930.31;5034426;28;20214;-82
2022/05/19 01:37:45;;;;;;;8.50;3.40;;;;;;;8.38;87.17;95925.28;5051800;28;20190;-82
2022/05/19 01:40:14;;;;;;;4.50;3.30;;;;;;;8.55;86.94;95952.25;5052237;28;20175;-82
2022/05/19 01:42:57;;;;;;;6.07;3.50;;;;;;;8.51;87.22;95945.69;5051646;28;20258;-83
2022/05/19 01:45:58;;;;;;;8.87;4.07;;;;;;;8.54;87.04;95951.44;5033079;28;20639;-84
2022/05/19 01:48:38;;;;;;;5.40;4.00;;;;;;;8.07;86.66;95877.97;5049820;28;20174;-83
2022/05/19 01:51:21;;;;;;;6.93;3.23;;;;;;;8.30;86.88;95915.56;5050466;28;20168;-83
2022/05/19 01:54:01;;;;;;;4.80;3.20;;;;;;;8.53;86.89;95959.47;5034177;28;20175;-83
2022/05/19 01:56:31;;;;;;;46.53;19.57;;;;;;;8.55;87.77;95958.34;5032769;28;20550;-83
2022/05/19 01:59:22;;;;;;;61.17;30.63;;;;;;;8.55;88.26;95947.84;5033940;28;20171;-83
2022/05/19 02:02:02;;;;;;;48.60;24.00;;;;;;;8.56;88.35;95941.56;5027113;28;20198;-83
2022/05/19 02:04:37;;;;;;;9.23;3.67;;;;;;;8.52;86.87;95932.41;5046199;28;20559;-83
2022/05/19 02:07:07;;;;;;;4.87;3.00;;;;;;;8.56;85.36;95944.19;5026177;28;20179;-83
2022/05/19 02:09:38;;;;;;;2.53;2.30;;;;;;;8.30;85.37;95920.03;5051844;28;20183;-83
2022/05/19 02:12:05;;;;;;;4.53;2.87;;;;;;;8.57;85.87;95966.81;5048258;28;20310;-83
2022/05/19 02:14:35;;;;;;;3.97;2.60;;;;;;;8.45;86.05;95970.84;5051715;28;20219;-83
2022/05/19 02:17:05;;;;;;;4.57;2.77;;;;;;;8.41;86.33;95960.84;5033530;28;20167;-83
2022/05/19 02:19:36;;;;;;;4.60;2.40;;;;;;;8.01;86.41;95901.44;5051628;28;20709;-83
2022/05/19 02:22:04;;;;;;;2.90;2.60;;;;;;;8.03;87.28;95905.53;5051425;28;20560;-82
2022/05/19 02:24:34;;;;;;;3.90;2.40;;;;;;;8.37;87.05;95968.25;5051185;28;20179;-82
2022/05/19 02:27:31;;;;;;;3.57;2.80;;;;;;;8.24;87.74;95939.06;5033712;28;20198;-82
2022/05/19 02:29:57;;;;;;;3.20;2.07;;;;;;;8.40;87.91;95964.44;5051507;28;20586;-83
2022/05/19 02:32:23;;;;;;;5.57;2.30;;;;;;;8.19;88.71;95925.66;5051419;28;20241;-82
2022/05/19 02:34:48;;;;;;;3.77;2.40;;;;;;;8.23;88.84;95926.91;5051661;28;20536;-83
2022/05/19 02:37:14;;;;;;;5.57;2.30;;;;;;;8.37;88.72;95933.31;5033116;28;20186;-83
2022/05/19 02:39:39;;;;;;;2.53;2.33;;;;;;;8.58;88.68;95965.84;5032542;28;20166;-83
2022/05/19 02:42:06;;;;;;;6.20;2.80;;;;;;;8.59;88.48;95969.28;5051210;28;20175;-83
2022/05/19 02:44:31;;;;;;;2.90;2.40;;;;;;;7.95;88.84;95861.81;5051385;28;20173;-83
2022/05/19 02:46:56;;;;;;;4.57;2.33;;;;;;;8.33;88.82;95914.47;5024635;28;20171;-83
2022/05/19 02:49:23;;;;;;;3.20;2.40;;;;;;;8.40;88.98;95914.59;5038806;28;20202;-82
2022/05/19 02:51:48;;;;;;;3.37;2.57;;;;;;;8.60;89.52;95931.56;5040003;28;20174;-83
2022/05/19 02:54:13;;;;;;;4.50;2.70;;;;;;;8.51;89.79;95903.72;5051075;28;20175;-83
2022/05/19 02:56:39;;;;;;;3.33;2.47;;;;;;;8.27;89.26;95863.47;5033234;28;20237;-83
2022/05/19 02:59:04;;;;;;;5.30;2.70;;;;;;;8.72;89.18;95932.00;5033289;28;20187;-83
2022/05/19 03:01:30;;;;;;;5.17;2.77;;;;;;;8.78;89.38;95933.94;5051088;28;20657;-83
2022/05/19 03:03:55;;;;;;;4.40;2.47;;;;;;;8.67;88.82;95909.69;5051303;28;20210;-83
2022/05/19 03:06:21;;;;;;;10.80;4.47;;;;;;;8.72;89.05;95916.25;5051160;28;20170;-83
2022/05/19 03:08:46;;;;;;;7.30;3.63;;;;;;;8.87;89.04;95949.47;5051065;28;20226;-83
2022/05/19 03:11:12;;;;;;;6.53;3.77;;;;;;;8.72;88.73;95924.13;5032940;28;20178;-83
2022/05/19 03:13:37;;;;;;;5.33;3.47;;;;;;;8.88;88.74;95953.72;5050761;28;20215;-82
2022/05/19 03:16:07;;;;;;;6.23;4.03;;;;;;;9.07;88.68;95981.34;5033161;28;20654;-83
2022/05/19 03:18:33;;;;;;;12.10;4.53;;;;;;;8.85;88.55;95937.50;5050747;28;20171;-83
2022/05/19 03:20:58;;;;;;;7.20;3.63;;;;;;;8.94;88.02;95947.78;5032992;28;20687;-83
2022/05/19 03:23:24;;;;;;;11.37;3.10;;;;;;;8.91;87.73;95947.28;5050905;28;20173;-82
2022/05/19 03:25:49;;;;;;;6.30;2.93;;;;;;;8.96;87.52;95982.56;5050894;28;20233;-83
2022/05/19 03:28:15;;;;;;;5.43;3.57;;;;;;;8.60;87.55;95939.44;5049299;28;20160;-82
2022/05/19 03:30:42;;;;;;;7.80;3.60;;;;;;;8.90;87.90;95991.13;5050457;28;20180;-82
2022/05/19 03:33:07;;;;;;;3.87;2.83;;;;;;;8.57;87.39;95950.25;5032769;28;20610;-83
2022/05/19 03:35:33;;;;;;;8.47;3.23;;;;;;;8.81;87.20;95999.22;5054348;28;20175;-83
2022/05/19 03:37:59;;;;;;;6.33;3.17;;;;;;;8.34;87.62;95921.34;5054523;28;20254;-83
2022/05/19 03:40:25;;;;;;;5.63;3.00;;;;;;;8.46;87.54;95948.03;5053266;28;20705;-83
2022/05/19 03:42:50;;;;;;;5.97;3.40;;;;;;;8.74;87.33;96001.69;5054471;28;20241;-81
2022/05/19 03:45:16;;;;;;;9.73;3.50;;;;;;;8.78;88.46;96005.63;5035273;28;20677;-81
2022/05/19 03:47:41;;;;;;;7.17;3.33;;;;;;;8.72;88.70;95985.31;5026404;28;20179;-81
2022/05/19 03:50:07;;;;;;;6.70;3.70;;;;;;;8.70;88.51;95988.13;5053200;28;20311;-81
2022/05/19 03:52:36;;;;;;;5.13;3.50;;;;;;;8.79;89.00;95994.13;5053645;28;20175;-81
2022/05/19 03:55:01;;;;;;;6.27;3.97;;;;;;;8.76;89.22;95976.09;5053408;28;20246;-81
2022/05/19 03:57:27;;;;;;;6.90;3.43;;;;;;;8.98;89.82;96011.28;5054015;28;20270;-80
2022/05/19 03:59:52;;;;;;;4.83;3.27;;;;;;;9.06;89.25;96006.00;5035743;28;20175;-81
2022/05/19 04:02:18;;;;;;;4.67;3.17;;;;;;;9.33;89.09;96034.41;5053792;28;20593;-81
2022/05/19 04:04:43;;;;;;;10.57;3.30;;;;;;;9.45;88.87;96026.91;5049003;28;20164;-80
2022/05/19 04:07:09;;;;;;;5.57;3.07;;;;;;;9.26;88.80;95991.41;5047838;28;20209;-81
2022/05/19 04:09:34;;;;;;;6.30;3.40;;;;;;;9.38;88.12;95997.06;5040265;28;20196;-81
2022/05/19 04:12:00;;;;;;;5.77;3.20;;;;;;;9.53;87.78;96012.91;5042201;28;20191;-81
2022/05/19 04:14:27;;;;;;;5.57;3.40;;;;;;;9.64;87.35;96020.38;5053381;28;20215;-81
2022/05/19 04:16:53;;;;;;;10.23;3.40;;;;;;;9.81;87.30;96035.84;5035893;28;20715;-81
2022/05/19 04:19:19;;;;;;;12.73;7.13;;;;;;;9.75;86.32;96017.34;5035199;28;20526;-81
2022/05/19 04:21:45;;;;;;;142.80;71.20;;;;;;;9.95;87.05;96038.69;5053543;28;20170;-81
2022/05/19 04:24:13;;;;;;;41.03;20.67;;;;;;;10.05;87.59;96036.63;5043729;28;20179;-81
2022/05/19 04:26:39;;;;;;;74.80;36.73;;;;;;;10.21;87.20;96045.22;5042967;28;20186;-81
2022/05/19 04:29:05;;;;;;;12.27;7.63;;;;;;;10.33;86.69;96034.28;5033949;28;20256;-81
2022/05/19 04:31:31;;;;;;;28.40;13.57;;;;;;;10.49;85.30;96037.53;5053485;28;20755;-81
2022/05/19 04:33:57;;;;;;;11.67;5.13;;;;;;;10.46;84.04;96008.97;5053096;28;20317;-81
2022/05/19 04:36:23;;;;;;;9.13;4.63;;;;;;;10.76;83.17;96038.72;5053175;28;20257;-81
2022/05/19 04:38:48;;;;;;;8.37;4.30;;;;;;;10.69;82.18;96016.75;5038256;28;20170;-81
2022/05/19 04:41:13;;;;;;;6.27;4.43;;;;;;;10.73;81.62;96014.56;5025080;28;20287;-81
2022/05/19 04:43:39;;;;;;;10.20;4.67;;;;;;;10.80;81.58;95995.25;5042625;28;20182;-81
2022/05/19 04:46:04;;;;;;;7.50;4.70;;;;;;;10.89;80.80;96004.69;5042709;28;20182;-81
2022/05/19 04:48:30;;;;;;;7.87;5.13;;;;;;;11.33;80.62;96052.00;5045160;28;20642;-81
2022/05/19 04:50:58;;;;;;;8.20;4.60;;;;;;;11.56;79.49;96051.03;5043371;28;20171;-81
2022/05/19 04:53:25;;;;;;;6.63;4.33;;;;;;;11.74;77.70;96054.06;5051510;28;20171;-80
2022/05/19 04:55:53;;;;;;;13.93;4.10;;;;;;;11.98;76.22;96059.00;5051829;28;20167;-80
2022/05/19 04:58:19;;;;;;;8.77;4.00;;;;;;;11.83;76.26;96057.44;5052580;28;20254;-80
2022/05/19 05:00:50;;;;;;;7.90;4.57;;;;;;;11.51;77.14;96024.41;5050095;28;20294;-80
2022/05/19 05:03:15;;;;;;;8.70;4.70;;;;;;;11.48;76.98;96037.97;5051908;28;20296;-80
2022/05/19 05:05:41;;;;;;;7.27;4.00;;;;;;;11.65;77.99;96063.94;5036147;28;20182;-80
2022/05/19 05:08:06;;;;;;;10.27;4.60;;;;;;;11.53;77.91;96039.03;5052807;28;20562;-80
2022/05/19 05:10:32;;;;;;;7.60;5.57;;;;;;;11.86;78.04;96063.13;5052580;28;20183;-80
2022/05/19 05:13:04;;;;;;;15.63;7.60;;;;;;;12.24;78.27;96037.28;5050557;28;20179;-80
2022/05/19 05:15:29;;;;;;;15.90;8.83;;;;;;;13.49;76.16;96071.53;5044850;28;20233;-81
2022/05/19 05:17:55;;;;;;;12.70;6.97;;;;;;;14.49;73.05;96073.31;5051739;28;20179;-81
2022/05/19 05:20:21;;;;;;;14.20;7.17;;;;;;;15.11;68.54;96064.88;5050572;28;20171;-80
2022/05/19 05:22:47;;;;;;;15.80;7.03;;;;;;;15.25;66.08;96062.97;5050079;28;20232;-80
2022/05/19 05:25:15;;;;;;;10.30;6.80;;;;;;;14.99;66.64;96079.78;5050986;28;20183;-80
2022/05/19 05:27:41;;;;;;;11.53;6.67;;;;;;;14.48;66.76;96082.28;5052034;28;20654;-80
2022/05/19 05:30:08;;;;;;;12.83;7.73;;;;;;;13.79;68.10;96056.94;5033388;28;20187;-81
2022/05/19 05:32:34;;;;;;;12.33;6.57;;;;;;;13.55;70.88;96065.44;5020933;28;20175;-82
2022/05/19 05:34:59;;;;;;;15.83;7.50;;;;;;;13.75;70.82;96079.53;5044647;28;20175;-79
2022/05/19 05:37:25;;;;;;;12.40;7.27;;;;;;;14.10;68.53;96087.31;5052048;28;20181;-82
2022/05/19 05:39:51;;;;;;;11.83;5.83;;;;;;;14.64;68.72;96061.47;5052027;28;20201;-81
2022/05/19 05:42:16;;;;;;;7.93;6.00;;;;;;;15.56;64.40;96062.28;5051319;28;20179;-83
2022/05/19 05:44:42;;;;;;;8.33;5.60;;;;;;;16.43;62.22;96040.22;5032746;28;20207;-83
2022/05/19 05:47:07;;;;;;;7.00;5.07;;;;;;;17.35;59.31;96084.53;5051814;28;20664;-81
2022/05/19 05:49:33;;;;;;;11.67;6.93;;;;;;;18.13;58.03;96110.41;5045765;28;20210;-82
2022/05/19 05:51:58;;;;;;;9.70;4.93;;;;;;;18.25;54.62;96098.72;5051009;28;20174;-82
2022/05/19 05:54:24;;;;;;;7.32;5.60;;;;;;;17.80;58.51;96102.88;5048488;28;20179;-82
2022/05/19 05:56:50;;;;;;;9.70;5.20;;;;;;;17.25;58.93;96049.63;5025678;28;20303;-82
2022/05/19 05:59:16;;;;;;;11.47;5.00;;;;;;;17.27;58.50;96098.97;5040091;28;20544;-81
2022/05/19 06:01:41;;;;;;;6.23;4.40;;;;;;;17.09;61.73;96101.59;5038967;28;20175;-80
2022/05/19 06:04:07;;;;;;;7.93;4.80;;;;;;;17.19;61.67;96074.47;5042867;28;20258;-80
2022/05/19 06:06:32;;;;;;;5.75;4.00;;;;;;;17.19;59.47;96093.94;5049868;28;20202;-80
2022/05/19 06:08:58;;;;;;;5.45;3.60;;;;;;;17.33;61.55;96097.25;5047761;28;20719;-80
2022/05/19 06:11:31;;;;;;;26.05;11.10;;;;;;;17.86;59.75;96099.28;5049988;28;20630;-81
2022/05/19 06:13:57;;;;;;;15.50;9.30;;;;;;;17.99;58.45;96107.09;5050872;28;20238;-81
2022/05/19 06:16:22;;;;;;;16.23;7.60;;;;;;;18.30;60.03;96095.38;5045991;28;20171;-81
2022/05/19 06:18:48;;;;;;;16.52;10.63;;;;;;;18.70;56.59;96111.59;5031420;28;20221;-81
2022/05/19 06:21:14;;;;;;;20.23;10.40;;;;;;;18.56;54.22;96110.16;5049956;28;20639;-81
2022/05/19 06:23:39;;;;;;;13.00;7.63;;;;;;;18.59;57.42;96099.91;5050186;28;20175;-81
2022/05/19 06:26:05;;;;;;;15.25;6.68;;;;;;;18.66;55.53;96099.78;5046582;28;20260;-81
2022/05/19 06:28:31;;;;;;;17.63;5.57;;;;;;;18.26;56.57;96108.34;5047275;28;20259;-80
2022/05/19 06:30:56;;;;;;;11.25;5.75;;;;;;;18.14;56.82;96102.19;5051172;28;20257;-81
2022/05/19 06:33:22;;;;;;;13.32;5.65;;;;;;;17.91;58.06;96064.78;5050662;28;20175;-81
2022/05/19 06:35:48;;;;;;;11.98;5.70;;;;;;;18.21;58.44;96086.09;5051008;28;20183;-80
2022/05/19 06:38:14;;;;;;;6.35;4.22;;;;;;;18.66;59.13;96102.44;5050748;28;20183;-82
2022/05/19 06:40:41;;;;;;;9.55;4.05;;;;;;;18.94;54.96;96099.88;5048918;28;20167;-82
2022/05/19 06:43:13;;;;;;;5.72;4.45;;;;;;;19.15;54.04;96117.19;5048781;28;20201;-82
2022/05/19 06:45:39;;;;;;;11.15;4.10;;;;;;;19.16;53.78;96105.47;5051295;28;20673;-82
2022/05/19 06:48:06;;;;;;;9.23;4.13;;;;;;;19.28;55.33;96108.97;5045868;28;20217;-82
2022/05/19 06:50:32;;;;;;;5.30;3.33;;;;;;;19.57;54.06;96105.31;5050579;28;20712;-85
2022/05/19 06:53:03;;;;;;;5.45;3.38;;;;;;;19.75;54.40;96082.97;5050608;28;20175;-84
2022/05/19 06:55:34;;;;;;;10.70;3.50;;;;;;;19.86;51.95;96063.41;5042459;28;20203;-84
2022/05/19 06:58:00;;;;;;;7.10;3.63;;;;;;;20.38;51.95;96099.91;5047630;28;20205;-85
2022/05/19 07:00:27;;;;;;;5.00;2.95;;;;;;;20.69;50.01;96107.38;5032888;28;20179;-89
2022/05/19 07:02:56;;;;;;;8.23;3.40;;;;;;;20.61;49.52;96076.50;5049701;28;20183;-84
2022/05/19 07:05:26;;;;;;;10.55;2.90;;;;;;;20.91;50.41;96096.78;5031330;28;20665;-84
2022/05/19 07:07:52;;;;;;;7.95;3.42;;;;;;;20.89;48.41;96107.72;5050371;28;20182;-84
2022/05/19 07:10:21;;;;;;;8.35;3.03;;;;;;;20.50;50.31;96055.97;5051613;28;20199;-85
2022/05/19 07:12:47;;;;;;;6.47;2.80;;;;;;;20.90;52.04;96105.84;5036470;28;20175;-84
2022/05/19 07:15:14;;;;;;;4.65;2.60;;;;;;;20.89;47.32;96078.28;5054351;28;20586;-84
2022/05/19 07:17:40;;;;;;;6.07;2.90;;;;;;;21.28;50.03;96108.56;5053357;28;20337;-83
2022/05/19 07:22:51;;;;;;;10.55;5.22;;;;;;;21.72;47.13;96093.34;5050259;28;20178;-86
2022/05/19 07:25:16;;;;;;;6.72;3.08;;;;;;;21.00;47.43;96060.50;5052245;28;20178;-83
2022/05/19 07:27:42;;;;;;;6.80;3.92;;;;;;;20.63;46.23;96074.41;5033060;28;20178;-84
2022/05/19 07:30:09;;;;;;;6.85;4.20;;;;;;;20.63;49.70;96081.59;5031223;28;20665;-83
2022/05/19 07:32:35;;;;;;;9.95;4.07;;;;;;;20.13;50.17;96085.03;5049372;28;20685;-82
2022/05/19 07:35:01;;;;;;;4.53;2.90;;;;;;;19.95;52.31;96063.81;5054754;28;20183;-82
2022/05/19 07:37:27;;;;;;;6.00;3.60;;;;;;;20.10;50.55;96052.59;5052668;28;20179;-82
2022/05/19 07:39:53;;;;;;;6.57;2.28;;;;;;;20.46;49.44;96086.13;5051113;28;20176;-83
2022/05/19 07:42:20;;;;;;;4.35;2.25;;;;;;;20.54;49.09;96067.81;5054075;28;20638;-82
2022/05/19 07:44:46;;;;;;;7.28;2.42;;;;;;;21.15;48.67;96092.03;5054031;28;20190;-82
2022/05/19 07:47:12;;;;;;;2.97;2.45;;;;;;;20.71;46.03;96070.50;5051702;28;20183;-82
2022/05/19 07:49:37;;;;;;;3.28;2.15;;;;;;;20.52;45.68;96075.28;5054097;28;20195;-83
2022/05/19 07:52:04;;;;;;;4.85;3.47;;;;;;;20.61;46.73;96076.50;5054187;28;20659;-82
2022/05/19 07:54:33;;;;;;;27.60;4.47;;;;;;;20.81;46.27;96091.25;5053584;28;20205;-82
2022/05/19 07:56:59;;;;;;;42.42;4.80;;;;;;;20.84;46.76;96069.34;5049149;28;20186;-81
2022/05/19 07:59:25;;;;;;;2.83;2.00;;;;;;;21.28;47.81;96094.38;5053705;28;20296;-81
2022/05/19 08:01:52;;;;;;;5.03;2.25;;;;;;;21.43;43.94;96087.38;5051193;28;20198;-81
2022/05/19 08:04:18;;;;;;;55.13;5.57;;;;;;;21.68;43.88;96096.78;5036035;28;20277;-81
2022/05/19 08:06:44;;;;;;;115.18;19.55;;;;;;;21.87;43.58;96097.28;5053337;28;20179;-82
2022/05/19 08:11:54;;;;;;;4.20;2.05;;;;;;;22.22;43.18;96100.38;5051617;28;20258;-81
2022/05/19 08:17:12;;;;;;;4.22;2.10;;;;;;;22.50;42.01;96083.16;5053215;28;20174;-83
2022/05/19 08:19:38;;;;;;;4.47;1.83;;;;;;;22.19;41.87;96037.28;5053140;28;20163;-82
2022/05/19 08:22:05;;;;;;;3.90;1.90;;;;;;;22.53;39.74;96080.78;5051797;28;20181;-82
2022/05/19 08:24:31;;;;;;;6.50;1.80;;;;;;;22.47;42.52;96081.81;5053743;28;20229;-82
2022/05/19 08:26:57;;;;;;;7.50;1.77;;;;;;;22.75;40.97;96087.97;5050817;28;20657;-79
2022/05/19 08:29:23;;;;;;;1.73;1.48;;;;;;;22.93;39.24;96091.06;5035585;28;20678;-80
2022/05/19 08:31:49;;;;;;;2.53;1.58;;;;;;;22.71;37.80;96092.22;5053531;28;20213;-80
2022/05/19 08:34:15;;;;;;;7.90;1.70;;;;;;;22.32;40.31;96057.50;5034337;28;20183;-79
2022/05/19 08:36:43;;;;;;;2.55;1.58;;;;;;;22.52;38.91;96062.25;5053513;28;20653;-79
2022/05/19 08:39:09;;;;;;;2.90;1.30;;;;;;;22.75;40.89;96067.28;5035748;28;20624;-79
2022/05/19 08:41:58;;;;;;;2.92;1.55;;;;;;;22.95;41.65;96078.19;5051666;28;20254;-80
2022/05/19 08:44:35;;;;;;;4.13;1.85;;;;;;;22.29;37.38;96068.78;5052817;28;20265;-82
2022/05/19 08:47:02;;;;;;;8.02;1.73;;;;;;;21.22;36.61;96077.44;5046288;28;20179;-81
2022/05/19 08:49:47;;;;;;;3.88;1.50;;;;;;;21.08;39.97;96078.81;5050994;28;20183;-81
2022/05/19 08:52:17;;;;;;;2.80;1.35;;;;;;;21.54;37.23;96074.88;5052289;28;22145;-81
2022/05/19 08:54:45;;;;;;;3.70;1.63;;;;;;;21.69;36.17;96074.28;5030707;28;20556;-81
2022/05/19 08:57:30;;;;;;;1.70;1.20;;;;;;;21.85;35.34;96070.72;5048391;28;20186;-83
2022/05/19 09:00:22;;;;;;;2.63;1.48;;;;;;;21.91;36.06;96042.06;5052324;28;20241;-78
2022/05/19 09:03:13;;;;;;;3.85;2.38;;;;;;;22.50;39.28;96067.06;5050781;28;20175;-79
2022/05/19 09:06:16;;;;;;;2.10;1.50;;;;;;;22.38;37.10;96061.06;5035594;28;20191;-78
2022/05/19 09:08:47;;;;;;;7.03;1.38;;;;;;;22.37;38.95;96054.91;5052530;28;20178;-79
2022/05/19 09:11:19;;;;;;;6.65;1.70;;;;;;;22.02;34.47;96043.81;5049375;28;20175;-78
2022/05/19 09:13:53;;;;;;;2.97;1.00;;;;;;;21.66;33.29;96034.56;5047865;28;20222;-78
2022/05/19 09:16:25;;;;;;;5.55;1.92;;;;;;;21.70;40.21;96046.41;5049956;28;20655;-79
2022/05/19 09:19:17;;;;;;;5.25;1.50;;;;;;;21.88;37.77;96042.59;5051610;28;20175;-79
2022/05/19 09:21:45;;;;;;;4.47;1.30;;;;;;;21.86;36.40;96037.47;5037553;28;20278;-79
2022/05/19 09:24:11;;;;;;;1.70;1.20;;;;;;;21.41;32.96;96019.00;5031540;28;20213;-79
2022/05/19 09:26:52;;;;;;;3.88;1.30;;;;;;;21.17;34.58;96031.84;5050689;28;20179;-82
2022/05/19 09:29:21;;;;;;;5.05;1.20;;;;;;;21.19;35.68;96024.34;5052016;28;20287;-81
2022/05/19 09:31:48;;;;;;;3.58;1.30;;;;;;;21.00;34.84;96015.78;5049600;28;20179;-79
2022/05/19 09:34:14;;;;;;;1.27;1.17;;;;;;;21.00;36.32;96017.66;5052345;28;20175;-79
2022/05/19 09:36:54;;;;;;;1.23;1.10;;;;;;;21.01;36.84;96030.78;5052146;28;20186;-79
2022/05/19 09:39:20;;;;;;;2.70;1.38;;;;;;;20.40;34.49;96018.38;5049428;28;20163;-80
2022/05/19 09:41:53;;;;;;;1.33;1.23;;;;;;;20.38;38.35;96031.19;5051773;28;20182;-80
2022/05/19 09:44:27;;;;;;;2.40;1.63;;;;;;;20.31;35.41;96031.31;5051871;28;20684;-80
2022/05/19 09:46:53;;;;;;;4.22;1.73;;;;;;;20.24;39.01;96003.06;5050592;28;20220;-81
2022/05/19 09:49:24;;;;;;;5.00;1.50;;;;;;;20.53;37.31;96027.94;5051579;28;20183;-83
2022/05/19 09:51:50;;;;;;;3.80;1.50;;;;;;;20.61;35.66;96025.66;5050581;28;20305;-84
2022/05/19 09:54:16;;;;;;;3.40;1.20;;;;;;;20.58;38.65;96020.78;5046362;28;20214;-82
2022/05/19 09:56:48;;;;;;;1.77;1.30;;;;;;;20.61;37.44;96011.47;5051920;28;20174;-82
2022/05/19 09:59:23;;;;;;;2.30;1.08;;;;;;;20.45;37.15;95999.72;5046379;28;20175;-81
2022/05/19 10:01:51;;;;;;;4.78;1.00;;;;;;;20.12;41.18;95954.22;5051854;28;20181;-82
2022/05/19 10:04:29;;;;;;;2.33;1.33;;;;;;;20.39;34.31;96007.91;5047232;28;20300;-82
2022/05/19 10:06:57;;;;;;;4.70;1.60;;;;;;;20.12;39.11;96003.19;5049759;28;20170;-81
2022/05/19 10:09:29;;;;;;;4.35;1.30;;;;;;;20.00;40.63;95974.88;5050318;28;20277;-82
2022/05/19 10:12:05;;;;;;;2.47;1.13;;;;;;;20.00;36.66;95993.59;5050244;28;20179;-82
2022/05/19 10:14:32;;;;;;;2.60;1.65;;;;;;;20.07;37.43;95995.03;5050279;28;20234;-81
2022/05/19 10:17:10;;;;;;;1.50;1.02;;;;;;;20.07;35.88;95996.91;5033019;28;20186;-79
2022/05/19 10:20:06;;;;;;;2.33;1.33;;;;;;;20.04;38.09;95968.81;5050997;28;20182;-78
2022/05/19 10:23:11;;;;;;;6.47;1.75;;;;;;;19.87;36.41;95989.38;5050061;28;20237;-78
2022/05/19 10:26:15;;;;;;;1.65;1.35;;;;;;;19.98;41.35;95983.13;5049815;28;20613;-78
2022/05/19 10:32:09;;;;;;;1.33;1.23;;;;;;;20.15;39.09;95975.94;5049648;28;20256;-77
2022/05/19 10:35:11;;;;;;;3.13;1.40;;;;;;;20.28;39.71;95972.94;5051066;28;20312;-78
2022/05/19 10:38:03;;;;;;;1.10;1.00;;;;;;;20.18;34.21;95950.56;5044376;28;20193;-79
2022/05/19 10:40:38;;;;;;;3.88;1.67;;;;;;;20.22;39.40;95967.75;5049410;28;20171;-79
2022/05/19 10:43:21;;;;;;;3.42;1.13;;;;;;;20.02;39.84;95960.22;5030605;28;20217;-79
2022/05/19 10:45:48;;;;;;;2.92;1.50;;;;;;;20.06;35.77;95961.38;5031566;28;20254;-79
2022/05/19 10:48:56;;;;;;;1.77;1.60;;;;;;;19.96;35.66;95964.69;5049385;28;20182;-79
2022/05/19 10:51:41;;;;;;;3.53;1.70;;;;;;;19.65;36.40;95956.34;5030705;28;20263;-79
2022/05/19 10:54:35;;;;;;;1.20;1.10;;;;;;;19.61;36.02;95950.69;5048318;28;20194;-79
2022/05/19 10:57:42;;;;;;;4.13;1.50;;;;;;;19.56;35.36;95938.03;5046044;28;20179;-78
2022/05/19 11:00:34;;;;;;;13.10;3.05;;;;;;;19.65;37.44;95946.47;5046846;28;20654;-78
2022/05/19 11:03:02;;;;;;;9.05;2.35;;;;;;;19.86;39.14;95953.00;5043608;28;20182;-78
2022/05/19 11:05:42;;;;;;;13.77;2.75;;;;;;;20.05;42.08;95956.25;5046882;28;20240;-78
2022/05/19 11:08:23;;;;;;;2.88;1.67;;;;;;;20.24;39.10;95952.25;5040461;28;21856;-78
2022/05/19 11:11:22;;;;;;;6.00;4.05;;;;;;;20.18;39.11;95918.47;5025240;28;20275;-78
2022/05/19 11:14:13;;;;;;;2.78;2.17;;;;;;;20.49;37.33;95944.69;5000069;28;20313;-78
2022/05/19 11:17:56;;;;;;;3.65;1.95;;;;;;;20.64;36.24;95939.53;5047533;28;21747;-80
2022/05/19 11:20:30;;;;;;;4.25;2.42;;;;;;;20.75;35.85;95939.66;4888503;29;20669;-78
2022/05/19 11:23:25;;;;;;;2.70;1.85;;;;;;;20.64;37.27;95936.03;4888172;29;20275;-78
2022/05/19 11:26:26;;;;;;;5.05;1.52;;;;;;;20.44;39.58;95935.75;5007185;28;20277;-78
2022/05/19 11:29:17;;;;;;;4.47;2.67;;;;;;;20.43;35.37;95923.41;5048320;28;20209;-79
2022/05/19 11:32:05;;;;;;;2.80;1.55;;;;;;;20.44;36.02;95922.38;5031486;28;20248;-79
2022/05/19 11:35:04;;;;;;;5.30;1.60;;;;;;;20.39;34.86;95914.28;5049715;28;20264;-78
2022/05/19 11:37:40;;;;;;;1.45;1.30;;;;;;;20.29;33.40;95905.03;5030903;28;20274;-79
2022/05/19 11:40:11;;;;;;;2.40;1.83;;;;;;;20.29;35.16;95904.22;5032290;28;20183;-79
2022/05/19 11:42:57;;;;;;;1.45;1.10;;;;;;;20.22;33.24;95888.34;5050142;28;20254;-78
2022/05/19 11:45:28;;;;;;;1.42;1.33;;;;;;;20.28;33.52;95891.91;5049687;28;20558;-77
2022/05/19 11:55:19;;;;;;;3.78;1.90;;;;;;;20.51;41.08;95885.53;5048930;28;20583;-78
2022/05/19 11:58:00;;;;;;;4.03;1.42;;;;;;;20.74;40.08;95884.50;5053611;28;20168;-79
2022/05/19 12:00:32;;;;;;;3.65;1.30;;;;;;;20.92;39.65;95892.25;5027152;28;20194;-79
2022/05/19 12:03:08;;;;;;;6.78;1.73;;;;;;;21.08;36.61;95880.63;5054046;28;20600;-79
2022/05/19 12:05:38;;;;;;;2.28;1.20;;;;;;;21.15;35.62;95875.88;5035791;28;20274;-79
2022/05/19 12:08:20;;;;;;;2.45;1.40;;;;;;;20.96;37.40;95840.59;5043055;28;20198;-79
2022/05/19 12:10:54;;;;;;;1.60;1.38;;;;;;;20.88;32.27;95880.41;5052864;28;20198;-79
2022/05/19 12:13:32;;;;;;;2.85;1.67;;;;;;;20.65;33.81;95849.34;5050407;28;20234;-79